Time;durP1;ratioP1;P1;durP2;ratioP2;P2;SDS_P1;SDS_P2;PMS_P1;PMS_P2;Temp;Humidity;BMP_temperature;BMP_pressure;BME280_temperature;BME280_humidity;BME280_pressure;Samples;Min_cycle;Max_cycle;Signal;HPM_P1;HPM_P2
2022/05/20 00:00:53;;;;;;;10.00;9.13;;;;;;;17.47;93.70;101482.38;4973680;28;20147;-73
2022/05/20 00:03:18;;;;;;;9.95;9.05;;;;;;;17.50;93.40;101486.56;4973887;28;20017;-73
2022/05/20 00:05:44;;;;;;;9.23;7.95;;;;;;;17.58;92.89;101483.88;4973920;28;20041;-74
2022/05/20 00:08:09;;;;;;;10.10;9.30;;;;;;;17.61;92.38;101488.06;4971590;28;20186;-73
2022/05/20 00:10:35;;;;;;;10.27;8.88;;;;;;;17.61;92.39;101480.03;4970604;28;20177;-74
2022/05/20 00:13:00;;;;;;;11.95;10.85;;;;;;;17.59;92.34;101482.06;4972883;28;20018;-74
2022/05/20 00:15:27;;;;;;;16.40;14.13;;;;;;;17.49;90.45;101483.03;4990990;28;20968;-73
2022/05/20 00:17:52;;;;;;;16.33;14.75;;;;;;;17.54;89.92;101484.38;4963110;28;20017;-74
2022/05/20 00:20:19;;;;;;;19.63;16.10;;;;;;;17.54;89.10;101489.72;4977857;28;20120;-73
2022/05/20 00:22:44;;;;;;;23.77;16.02;;;;;;;17.54;88.64;101489.72;4991917;28;20183;-74
2022/05/20 00:27:54;;;;;;;16.70;15.00;;;;;;;17.52;87.21;101490.72;4983026;28;20040;-73
2022/05/20 00:30:20;;;;;;;18.77;16.58;;;;;;;17.41;87.29;101488.34;4997467;28;20158;-73
2022/05/20 00:32:45;;;;;;;20.17;16.30;;;;;;;17.39;86.89;101482.34;4977922;28;20144;-74
2022/05/20 00:35:11;;;;;;;18.70;16.70;;;;;;;17.36;85.94;101482.69;4959251;28;20025;-73
2022/05/20 00:37:37;;;;;;;20.63;15.82;;;;;;;17.37;85.67;101483.50;4942135;28;20010;-74
2022/05/20 00:40:06;;;;;;;16.00;14.32;;;;;;;17.34;84.41;101479.31;4957831;28;20260;-74
2022/05/20 00:42:32;;;;;;;16.17;14.55;;;;;;;17.42;83.48;101491.88;4955097;28;21029;-74
2022/05/20 00:44:58;;;;;;;15.20;13.60;;;;;;;17.44;83.18;101489.88;4966276;28;20210;-73
2022/05/20 00:47:23;;;;;;;16.70;13.73;;;;;;;17.33;82.11;101485.69;4973796;28;21022;-73
2022/05/20 00:49:51;;;;;;;15.15;13.60;;;;;;;17.25;83.01;101480.31;4976691;28;20050;-73
2022/05/20 00:52:18;;;;;;;19.38;13.45;;;;;;;17.27;82.93;101479.13;4952976;28;20010;-74
2022/05/20 00:54:45;;;;;;;17.15;13.27;;;;;;;17.25;83.33;101478.47;4953689;28;20113;-73
2022/05/20 00:57:22;;;;;;;15.48;13.50;;;;;;;17.21;84.02;101470.94;4965187;28;20010;-73
2022/05/20 00:59:52;;;;;;;14.13;12.85;;;;;;;17.22;83.82;101477.94;4961370;28;20029;-73
2022/05/20 01:02:19;;;;;;;15.68;14.18;;;;;;;17.20;83.53;101478.09;4990283;28;20018;-73
2022/05/20 01:04:45;;;;;;;16.40;14.07;;;;;;;17.15;83.88;101475.91;4994145;28;20010;-73
2022/05/20 01:07:10;;;;;;;15.18;13.68;;;;;;;17.26;83.38;101476.63;5009947;28;20440;-74
2022/05/20 01:09:36;;;;;;;15.23;13.73;;;;;;;17.11;83.93;101469.22;4977990;28;20098;-73
2022/05/20 01:12:02;;;;;;;15.55;13.95;;;;;;;17.03;84.87;101471.84;4961772;28;20022;-73
2022/05/20 01:14:27;;;;;;;16.48;14.75;;;;;;;17.06;84.18;101471.56;4943608;28;20915;-73
2022/05/20 01:16:52;;;;;;;17.40;14.27;;;;;;;17.02;84.85;101470.22;4973439;28;20715;-74
2022/05/20 01:19:39;;;;;;;15.73;14.18;;;;;;;17.01;85.97;101473.88;4978647;28;20353;-73
2022/05/20 01:22:05;;;;;;;21.50;14.48;;;;;;;16.92;86.85;101456.97;4978030;28;20006;-73
2022/05/20 01:24:30;;;;;;;16.02;14.00;;;;;;;17.02;86.91;101464.84;4977102;28;20467;-74
2022/05/20 01:26:56;;;;;;;15.73;14.15;;;;;;;17.09;86.51;101460.53;4995573;28;20105;-73
2022/05/20 01:29:21;;;;;;;16.75;14.20;;;;;;;17.03;87.01;101463.00;4978092;28;21010;-73
2022/05/20 01:31:47;;;;;;;19.92;15.32;;;;;;;16.94;86.99;101460.31;4989710;27;20090;-73
2022/05/20 01:34:12;;;;;;;15.32;13.63;;;;;;;16.95;86.27;101464.66;5015428;27;20189;-72
2022/05/20 01:36:37;;;;;;;15.93;14.13;;;;;;;17.16;85.65;101466.06;4981498;27;20015;-73
2022/05/20 01:39:03;;;;;;;16.45;14.52;;;;;;;17.13;85.57;101456.53;5035726;27;20449;-74
2022/05/20 01:41:49;;;;;;;15.48;13.55;;;;;;;17.21;84.81;101462.91;5016850;27;20086;-73
2022/05/20 01:44:32;;;;;;;17.75;14.55;;;;;;;17.14;85.67;101457.38;5009897;28;20897;-74
2022/05/20 01:47:03;;;;;;;15.43;13.93;;;;;;;17.09;86.17;101452.50;4980975;28;20137;-73
2022/05/20 01:49:39;;;;;;;15.57;14.10;;;;;;;17.02;86.77;101453.31;5018698;28;20052;-73
2022/05/20 01:52:11;;;;;;;15.90;13.52;;;;;;;17.12;86.54;101460.19;4976341;28;20940;-73
2022/05/20 01:55:02;;;;;;;15.07;13.57;;;;;;;17.17;85.72;101460.56;4991848;28;20064;-73
2022/05/20 01:57:41;;;;;;;15.43;13.80;;;;;;;17.12;85.40;101454.84;4979387;28;20017;-73
2022/05/20 02:00:09;;;;;;;17.75;14.43;;;;;;;17.12;87.05;101444.16;4995654;28;20012;-73
2022/05/20 02:03:12;;;;;;;17.05;14.35;;;;;;;17.15;86.67;101434.97;5012124;28;20476;-73
2022/05/20 02:05:43;;;;;;;15.80;14.30;;;;;;;17.03;86.78;101437.09;4979463;28;20048;-73
2022/05/20 02:08:19;;;;;;;16.48;14.55;;;;;;;17.03;86.80;101439.78;5013632;28;20075;-73
2022/05/20 02:10:48;;;;;;;17.05;15.38;;;;;;;16.95;86.78;101448.63;4959820;28;20037;-73
2022/05/20 02:13:13;;;;;;;16.83;15.07;;;;;;;16.97;86.33;101451.13;4978060;28;21024;-73
2022/05/20 02:15:44;;;;;;;17.85;15.15;;;;;;;16.92;85.73;101446.28;4973452;28;20021;-73
2022/05/20 02:18:12;;;;;;;17.80;15.30;;;;;;;17.08;85.22;101450.84;4978796;28;20494;-73
2022/05/20 02:20:42;;;;;;;17.17;15.48;;;;;;;16.99;86.18;101454.47;4975956;28;20022;-73
2022/05/20 02:23:10;;;;;;;18.33;16.42;;;;;;;17.08;85.50;101437.47;4978495;28;20033;-73
2022/05/20 02:25:37;;;;;;;17.90;16.10;;;;;;;17.11;85.30;101442.47;4977517;28;20521;-73
2022/05/20 02:28:15;;;;;;;19.38;17.38;;;;;;;17.06;85.49;101444.81;4978740;28;20116;-74
2022/05/20 02:30:41;;;;;;;20.67;17.58;;;;;;;17.03;85.55;101449.63;4975714;28;20026;-73
2022/05/20 02:33:14;;;;;;;19.67;17.70;;;;;;;17.03;86.39;101442.44;4962877;28;20017;-73
2022/05/20 02:35:40;;;;;;;21.67;17.40;;;;;;;16.99;87.19;101438.41;4970035;28;20210;-75
2022/05/20 02:38:20;;;;;;;18.67;16.75;;;;;;;17.05;87.10;101436.94;4971884;28;20017;-73
2022/05/20 02:40:47;;;;;;;20.08;18.15;;;;;;;17.01;86.77;101433.75;4988798;28;20018;-73
2022/05/20 02:43:12;;;;;;;23.35;17.88;;;;;;;16.96;87.34;101433.41;4974838;28;20710;-74
2022/05/20 02:45:39;;;;;;;19.00;16.85;;;;;;;16.89;88.18;101435.06;4991261;28;20082;-73
2022/05/20 02:48:05;;;;;;;19.40;17.15;;;;;;;16.90;88.51;101439.41;4975635;28;20823;-73
2022/05/20 02:50:30;;;;;;;20.20;18.20;;;;;;;16.88;88.78;101434.22;4976922;28;20025;-73
2022/05/20 02:52:56;;;;;;;19.80;17.75;;;;;;;16.86;89.17;101432.66;4994172;28;21078;-73
2022/05/20 02:55:21;;;;;;;20.15;17.88;;;;;;;16.82;88.82;101427.66;4960286;28;20995;-73
2022/05/20 02:57:47;;;;;;;20.95;18.75;;;;;;;16.79;88.96;101427.13;4978376;28;20948;-73
2022/05/20 03:04:09;;;;;;;20.48;17.25;;;;;;;16.73;89.52;101417.09;4981268;28;20036;-73
2022/05/20 03:05:54;;;;;;;19.88;17.73;;;;;;;16.69;90.52;101421.91;4995729;28;20909;-73
2022/05/20 03:08:20;;;;;;;20.02;18.00;;;;;;;16.73;90.46;101417.91;4960979;28;20009;-73
2022/05/20 03:10:45;;;;;;;19.67;17.77;;;;;;;16.65;90.66;101416.06;4956255;28;20018;-73
2022/05/20 03:13:10;;;;;;;19.08;17.08;;;;;;;16.64;91.09;101410.88;4991112;28;20836;-73
2022/05/20 03:15:37;;;;;;;18.88;17.08;;;;;;;16.77;90.55;101419.28;4957987;28;20029;-73
2022/05/20 03:18:03;;;;;;;19.92;17.58;;;;;;;16.74;90.47;101413.44;4959491;28;20911;-73
2022/05/20 03:20:28;;;;;;;18.95;16.95;;;;;;;16.85;89.69;101404.25;4976267;28;20117;-73
2022/05/20 03:22:54;;;;;;;20.35;18.30;;;;;;;16.77;89.63;101403.22;4995559;28;20036;-74
2022/05/20 03:25:20;;;;;;;21.35;19.25;;;;;;;16.71;89.38;101393.19;4994642;28;20013;-73
2022/05/20 03:27:46;;;;;;;21.58;18.25;;;;;;;16.80;89.03;101391.38;4994749;28;20080;-74
2022/05/20 03:30:11;;;;;;;20.30;18.30;;;;;;;16.77;89.78;101397.06;4993225;28;20660;-73
2022/05/20 03:32:37;;;;;;;25.15;19.13;;;;;;;16.81;89.22;101398.41;5017607;27;20033;-73
2022/05/20 03:35:03;;;;;;;20.75;18.60;;;;;;;16.92;88.84;101394.63;5014407;27;20277;-74
2022/05/20 03:37:28;;;;;;;20.23;18.33;;;;;;;16.86;89.15;101395.25;4996205;27;20277;-73
2022/05/20 03:39:55;;;;;;;25.13;19.73;;;;;;;16.80;89.11;101400.22;5013712;27;20100;-73
2022/05/20 03:42:21;;;;;;;21.85;19.55;;;;;;;16.87;88.63;101394.25;4999008;27;20350;-73
2022/05/20 03:44:46;;;;;;;21.13;19.02;;;;;;;16.81;88.90;101406.44;4988169;28;20120;-73
2022/05/20 03:47:12;;;;;;;21.85;19.55;;;;;;;16.75;89.39;101405.25;4992441;28;20210;-73
2022/05/20 03:49:37;;;;;;;24.27;19.02;;;;;;;16.83;89.44;101391.06;4976886;28;20761;-73
2022/05/20 03:52:03;;;;;;;21.40;19.20;;;;;;;16.90;89.91;101397.47;5000768;28;20019;-72
2022/05/20 03:54:31;;;;;;;21.83;19.30;;;;;;;16.97;90.02;101400.31;4975556;28;20018;-73
2022/05/20 03:56:57;;;;;;;23.50;20.98;;;;;;;16.91;90.18;101387.63;4990648;28;20016;-73
2022/05/20 03:59:22;;;;;;;23.27;20.17;;;;;;;16.84;90.55;101384.72;4992398;28;20006;-75
2022/05/20 04:01:56;;;;;;;21.38;19.23;;;;;;;16.88;90.60;101382.53;4969613;28;20059;-75
2022/05/20 04:04:22;;;;;;;22.45;20.15;;;;;;;16.85;90.49;101390.91;4990542;28;20040;-75
2022/05/20 04:06:48;;;;;;;22.58;20.27;;;;;;;16.98;90.08;101381.44;4984963;28;20498;-74
2022/05/20 04:09:13;;;;;;;23.20;20.35;;;;;;;17.04;89.50;101384.47;4985652;28;20044;-74
2022/05/20 04:11:38;;;;;;;23.23;20.80;;;;;;;17.01;89.15;101385.63;4987375;28;20029;-74
2022/05/20 04:14:04;;;;;;;23.95;20.77;;;;;;;16.96;89.74;101385.28;5018442;28;20722;-75
2022/05/20 04:16:29;;;;;;;23.73;21.25;;;;;;;16.99;89.90;101390.28;4986256;28;20539;-76
2022/05/20 04:18:55;;;;;;;23.80;21.02;;;;;;;16.96;90.04;101387.94;5003998;28;20097;-74
2022/05/20 04:21:20;;;;;;;23.50;21.00;;;;;;;16.93;90.11;101397.13;5001012;28;20019;-74
2022/05/20 04:23:45;;;;;;;23.92;20.67;;;;;;;17.05;89.63;101405.69;5004809;28;20050;-76
2022/05/20 04:26:11;;;;;;;23.80;21.10;;;;;;;17.13;88.91;101403.06;4986399;28;20025;-75
2022/05/20 04:28:36;;;;;;;23.35;20.92;;;;;;;17.13;89.07;101397.69;4987132;28;21001;-74
2022/05/20 04:31:02;;;;;;;24.50;21.33;;;;;;;17.09;89.74;101407.06;4986773;28;20757;-76
2022/05/20 04:33:28;;;;;;;26.10;21.38;;;;;;;17.03;89.55;101402.34;4968137;28;20043;-74
2022/05/20 04:35:53;;;;;;;24.42;21.75;;;;;;;17.02;89.41;101414.06;4985318;28;20006;-74
2022/05/20 04:38:19;;;;;;;24.23;21.60;;;;;;;17.07;89.82;101410.88;4987358;28;20022;-72
2022/05/20 04:40:44;;;;;;;24.10;21.60;;;;;;;17.03;89.37;101410.34;4987037;28;20264;-75
2022/05/20 04:48:38;;;;;;;24.00;21.53;;;;;;;17.16;89.27;101397.38;4987693;28;19997;-74
2022/05/20 04:51:03;;;;;;;24.35;21.83;;;;;;;17.13;89.42;101400.38;4966489;28;20445;-74
2022/05/20 04:56:12;;;;;;;;;;;;;;;17.32;88.69;101395.72;4974973;28;20172;-75
2022/05/20 04:58:38;;;;;;;24.00;21.50;;;;;;;17.39;88.17;101385.22;5001560;28;20907;-75
2022/05/20 05:01:03;;;;;;;24.92;22.23;;;;;;;17.50;88.40;101393.72;4992948;28;20276;-75
2022/05/20 05:03:29;;;;;;;28.92;22.30;;;;;;;17.51;87.94;101400.75;4990240;28;20210;-74
2022/05/20 05:05:54;;;;;;;24.88;20.92;;;;;;;17.51;88.91;101392.72;4983145;28;20010;-75
2022/05/20 05:08:19;;;;;;;23.60;20.83;;;;;;;17.60;89.40;101387.38;4948813;28;20117;-75
2022/05/20 05:10:45;;;;;;;23.65;21.08;;;;;;;17.57;89.37;101383.19;4978672;28;20965;-74
2022/05/20 05:13:14;;;;;;;24.13;21.73;;;;;;;17.52;89.77;101385.53;4976272;28;20014;-75
2022/05/20 05:15:41;;;;;;;24.27;21.77;;;;;;;17.59;89.09;101391.06;4975619;28;20073;-74
2022/05/20 05:18:11;;;;;;;23.15;20.73;;;;;;;17.68;89.71;101385.53;4975596;28;20928;-75
2022/05/20 05:20:40;;;;;;;22.95;20.55;;;;;;;17.74;89.71;101378.69;4990642;28;20797;-75
2022/05/20 05:23:05;;;;;;;25.35;22.45;;;;;;;17.82;89.68;101377.81;4977299;28;20710;-75
2022/05/20 05:25:32;;;;;;;25.17;22.58;;;;;;;17.86;87.81;101371.94;4975636;28;20013;-75
2022/05/20 05:27:57;;;;;;;24.73;22.15;;;;;;;17.91;87.20;101378.66;4991837;28;20013;-75
2022/05/20 05:30:23;;;;;;;24.75;22.05;;;;;;;17.97;86.62;101383.38;5011609;27;20105;-74
2022/05/20 05:32:48;;;;;;;25.92;23.20;;;;;;;17.88;86.38;101373.63;5010167;28;20056;-74
2022/05/20 05:35:16;;;;;;;25.20;22.60;;;;;;;17.91;87.35;101389.38;4975977;27;20017;-75
2022/05/20 05:37:41;;;;;;;24.60;22.17;;;;;;;17.94;87.91;101373.00;4959465;28;20024;-74
2022/05/20 05:40:09;;;;;;;24.73;21.98;;;;;;;18.07;87.32;101365.25;4996018;28;20080;-74
2022/05/20 05:42:34;;;;;;;25.75;22.95;;;;;;;18.03;86.70;101369.28;4991960;28;20139;-74
2022/05/20 05:45:00;;;;;;;26.17;23.38;;;;;;;17.95;86.57;101359.44;4991500;28;20118;-74
2022/05/20 05:47:25;;;;;;;24.13;21.63;;;;;;;17.92;85.98;101364.28;4957309;28;20021;-74
2022/05/20 05:49:51;;;;;;;24.73;22.20;;;;;;;17.92;85.92;101356.25;5005284;28;20442;-75
2022/05/20 05:52:16;;;;;;;25.42;22.70;;;;;;;17.88;86.23;101352.22;5009270;28;20106;-75
2022/05/20 05:54:41;;;;;;;24.50;22.00;;;;;;;17.96;86.55;101344.19;4987101;28;20313;-75
2022/05/20 05:57:07;;;;;;;25.65;23.15;;;;;;;18.00;86.67;101348.22;4974542;28;20589;-75
2022/05/20 05:59:33;;;;;;;26.10;23.30;;;;;;;18.02;86.39;101347.03;4970841;28;20017;-74
2022/05/20 06:01:59;;;;;;;26.15;23.48;;;;;;;18.08;86.84;101339.31;4953392;28;20511;-75
2022/05/20 06:04:25;;;;;;;26.88;23.27;;;;;;;18.12;87.86;101338.81;4954908;28;20060;-75
2022/05/20 06:06:50;;;;;;;27.58;24.65;;;;;;;17.97;87.63;101346.69;4967596;28;20471;-75
2022/05/20 06:09:15;;;;;;;29.35;26.27;;;;;;;18.01;88.19;101341.84;4955945;28;20037;-75
2022/05/20 06:11:41;;;;;;;29.52;26.50;;;;;;;17.99;87.77;101341.16;4975130;28;20331;-75
2022/05/20 06:14:07;;;;;;;35.50;27.30;;;;;;;17.99;88.73;101347.38;4958802;28;20021;-74
2022/05/20 06:16:32;;;;;;;31.17;27.83;;;;;;;18.02;88.90;101354.22;4954318;28;20800;-75
2022/05/20 06:18:57;;;;;;;33.88;27.65;;;;;;;18.07;88.42;101357.22;4970938;28;20159;-75
2022/05/20 06:21:23;;;;;;;32.85;27.15;;;;;;;18.22;87.28;101357.38;4994585;28;20814;-75
2022/05/20 06:23:48;;;;;;;30.67;26.77;;;;;;;18.38;87.45;101342.25;4990531;28;20005;-74
2022/05/20 06:26:13;;;;;;;31.10;26.73;;;;;;;18.44;87.13;101334.31;4955702;28;20024;-75
2022/05/20 06:28:39;;;;;;;29.50;26.35;;;;;;;18.58;86.34;101331.94;4973811;28;20082;-75
2022/05/20 06:31:04;;;;;;;31.10;25.35;;;;;;;18.59;86.52;101317.53;5007065;28;20287;-75
2022/05/20 06:33:30;;;;;;;31.58;25.45;;;;;;;18.72;85.67;101328.50;4973840;28;20300;-75
2022/05/20 06:41:23;;;;;;;28.48;24.88;;;;;;;18.86;84.18;101314.31;4991728;28;20089;-75
2022/05/20 06:43:48;;;;;;;29.95;25.10;;;;;;;18.99;83.70;101324.50;4971916;28;20064;-75
2022/05/20 06:46:14;;;;;;;32.03;26.45;;;;;;;19.03;83.39;101324.97;4978379;28;20511;-75
2022/05/20 06:48:45;;;;;;;32.25;26.13;;;;;;;19.05;83.73;101328.34;4970100;28;20026;-75
2022/05/20 06:51:12;;;;;;;31.75;26.00;;;;;;;19.03;81.74;101322.28;4951935;28;20038;-76
2022/05/20 06:53:37;;;;;;;31.60;26.33;;;;;;;19.07;81.58;101328.16;4955061;28;20448;-76
2022/05/20 06:56:03;;;;;;;28.52;25.52;;;;;;;19.06;81.49;101327.31;4963496;28;20491;-76
2022/05/20 06:58:28;;;;;;;31.98;25.60;;;;;;;19.15;80.97;101328.06;4933874;28;20332;-75
2022/05/20 07:00:53;;;;;;;27.60;24.67;;;;;;;19.28;82.09;101325.63;4970942;28;20014;-76
2022/05/20 07:03:21;;;;;;;27.90;24.38;;;;;;;19.20;80.39;101329.19;4969609;28;20580;-76
2022/05/20 07:05:46;;;;;;;27.48;24.42;;;;;;;19.20;81.25;101334.56;4979956;28;20738;-76
2022/05/20 07:08:12;;;;;;;26.63;23.83;;;;;;;19.27;81.15;101325.81;4949717;28;20018;-76
2022/05/20 07:10:37;;;;;;;27.35;24.60;;;;;;;19.33;81.87;101330.44;4954198;28;20129;-74
2022/05/20 07:13:03;;;;;;;26.13;23.35;;;;;;;19.35;82.19;101325.75;4987688;28;20017;-75
2022/05/20 07:15:28;;;;;;;26.23;23.50;;;;;;;19.29;81.02;101316.56;4982663;28;20798;-75
2022/05/20 07:17:54;;;;;;;29.42;24.00;;;;;;;19.37;82.44;101312.97;4970718;28;20386;-75
2022/05/20 07:20:19;;;;;;;28.58;25.30;;;;;;;19.31;82.14;101306.47;4951047;28;20022;-75
2022/05/20 07:22:45;;;;;;;26.83;23.92;;;;;;;19.31;81.37;101309.16;4964131;28;20003;-75
2022/05/20 07:25:11;;;;;;;31.92;24.85;;;;;;;19.26;81.87;101297.31;4967854;28;20015;-75
2022/05/20 07:27:36;;;;;;;27.10;24.30;;;;;;;19.32;82.05;101297.44;4971296;28;20424;-75
2022/05/20 07:30:02;;;;;;;25.70;23.00;;;;;;;19.44;81.70;101281.72;4972462;28;20808;-75
2022/05/20 07:32:27;;;;;;;27.95;25.13;;;;;;;19.51;80.99;101269.22;4953076;28;20754;-76
2022/05/20 07:34:52;;;;;;;30.38;25.58;;;;;;;19.44;82.12;101256.72;4973018;28;20728;-75
2022/05/20 07:37:18;;;;;;;27.08;23.40;;;;;;;19.72;80.27;101248.88;4956893;28;20014;-75
2022/05/20 07:39:43;;;;;;;25.52;22.98;;;;;;;20.08;78.05;101246.31;4952333;28;20501;-75
2022/05/20 07:42:09;;;;;;;27.80;23.17;;;;;;;20.27;79.82;101246.72;4967443;28;20048;-75
2022/05/20 07:44:36;;;;;;;25.02;22.42;;;;;;;20.42;79.34;101250.22;4976481;28;20096;-75
2022/05/20 07:47:02;;;;;;;26.63;21.95;;;;;;;20.66;79.02;101258.94;4957981;28;20025;-75
2022/05/20 07:49:28;;;;;;;25.65;21.17;;;;;;;20.94;76.23;101263.59;5009258;28;20037;-76
2022/05/20 07:51:55;;;;;;;25.65;22.35;;;;;;;20.81;75.95;101263.47;4996687;28;20024;-76
2022/05/20 07:54:23;;;;;;;26.35;22.73;;;;;;;20.58;76.93;101241.06;4975706;28;20457;-76
2022/05/20 07:56:57;;;;;;;25.35;21.50;;;;;;;20.49;77.98;101238.69;4989582;28;20010;-76
2022/05/20 07:59:25;;;;;;;23.67;21.08;;;;;;;20.61;75.27;101244.41;4971356;28;20017;-75
2022/05/20 08:01:51;;;;;;;23.70;20.67;;;;;;;20.40;75.32;101238.84;4975579;28;20031;-75
2022/05/20 08:07:04;;;;;;;22.13;19.83;;;;;;;20.74;75.58;101236.50;4976403;28;20036;-75
2022/05/20 08:09:29;;;;;;;25.20;21.95;;;;;;;21.06;74.14;101228.94;4955988;28;20814;-76
2022/05/20 08:11:56;;;;;;;23.77;21.10;;;;;;;21.17;75.35;101247.25;4995049;28;20505;-75
2022/05/20 08:14:21;;;;;;;22.25;19.92;;;;;;;21.25;74.81;101248.94;4972407;28;20102;-74
2022/05/20 08:16:47;;;;;;;24.73;20.13;;;;;;;21.23;75.06;101249.13;4990337;28;20025;-76
2022/05/20 08:19:12;;;;;;;25.10;19.75;;;;;;;21.06;74.86;101253.16;4990345;28;20341;-75
2022/05/20 08:21:38;;;;;;;21.33;19.13;;;;;;;20.92;74.16;101252.19;5010438;27;20078;-75
2022/05/20 08:24:03;;;;;;;22.52;20.33;;;;;;;20.95;74.40;101241.03;4990241;28;21005;-76
2022/05/20 08:26:29;;;;;;;22.45;19.25;;;;;;;21.09;74.37;101239.28;4992063;28;20507;-75
2022/05/20 08:28:54;;;;;;;24.65;19.67;;;;;;;21.18;73.52;101231.91;5008757;28;20020;-75
2022/05/20 08:31:19;;;;;;;25.55;21.05;;;;;;;21.27;73.66;101234.25;4990234;28;20020;-75
2022/05/20 08:33:45;;;;;;;21.80;19.48;;;;;;;21.37;72.92;101235.78;4988783;27;20009;-75
2022/05/20 08:36:10;;;;;;;24.42;21.67;;;;;;;21.45;72.70;101233.78;4996441;27;20434;-75
2022/05/20 08:38:36;;;;;;;22.73;20.27;;;;;;;21.62;72.45;101225.44;5011771;27;20287;-76
2022/05/20 08:41:01;;;;;;;25.67;21.48;;;;;;;21.46;71.98;101218.44;4994243;27;20017;-74
2022/05/20 08:43:29;;;;;;;23.98;19.83;;;;;;;21.87;71.87;101216.84;4994943;27;20200;-75
2022/05/20 08:45:54;;;;;;;27.23;21.75;;;;;;;22.12;71.47;101217.16;4958353;28;20036;-76
2022/05/20 08:48:20;;;;;;;25.20;21.52;;;;;;;22.12;72.75;101212.59;4976240;28;20482;-76
2022/05/20 08:50:50;;;;;;;25.15;22.42;;;;;;;22.01;70.87;101201.56;4973346;28;20278;-76
2022/05/20 08:53:41;;;;;;;22.48;20.08;;;;;;;22.18;70.52;101197.50;4973557;28;20005;-76
2022/05/20 08:56:12;;;;;;;28.15;21.13;;;;;;;22.50;68.02;101192.38;4993784;28;20332;-75
2022/05/20 08:58:40;;;;;;;26.55;21.17;;;;;;;22.91;69.85;101177.06;4976530;28;20431;-76
2022/05/20 09:01:08;;;;;;;26.90;22.40;;;;;;;22.78;68.35;101177.91;4982361;28;20030;-75
2022/05/20 09:03:33;;;;;;;22.08;19.77;;;;;;;22.77;66.90;101178.94;4972251;28;20780;-75
2022/05/20 09:06:13;;;;;;;22.98;20.38;;;;;;;22.94;65.86;101166.69;4962252;28;20016;-76
2022/05/20 09:08:39;;;;;;;25.92;21.35;;;;;;;22.84;68.84;101176.22;4976671;28;20431;-77
2022/05/20 09:11:05;;;;;;;23.25;20.77;;;;;;;22.95;66.82;101168.34;4973934;28;20057;-76
2022/05/20 09:16:29;;;;;;;21.95;19.65;;;;;;;23.60;64.26;101159.50;4988474;28;20537;-76
2022/05/20 09:19:23;;;;;;;20.52;18.38;;;;;;;23.89;64.57;101154.66;4970993;28;20904;-76
2022/05/20 09:22:28;;;;;;;20.85;18.70;;;;;;;24.15;64.80;101150.13;4982424;28;20029;-76
2022/05/20 09:24:53;;;;;;;20.98;18.77;;;;;;;24.19;66.43;101145.94;4946969;28;20026;-76
2022/05/20 09:27:25;;;;;;;20.38;18.17;;;;;;;23.93;65.24;101142.38;4974719;28;20801;-76
2022/05/20 09:29:56;;;;;;;18.98;17.17;;;;;;;23.63;66.39;101137.47;4972761;28;20076;-75
2022/05/20 09:32:38;;;;;;;19.67;17.52;;;;;;;23.46;66.83;101138.97;4990047;28;20930;-75
2022/05/20 09:35:18;;;;;;;18.35;16.45;;;;;;;23.48;64.85;101126.13;4993000;28;20047;-76
2022/05/20 09:37:45;;;;;;;17.85;16.10;;;;;;;23.82;62.77;101124.91;5015977;27;20021;-75
2022/05/20 09:40:32;;;;;;;16.25;14.68;;;;;;;24.48;63.02;101120.16;4977259;27;21055;-76
2022/05/20 09:43:05;;;;;;;16.50;14.90;;;;;;;24.69;61.54;101124.38;5000170;28;20338;-76
2022/05/20 09:45:47;;;;;;;14.30;12.80;;;;;;;25.14;59.39;101119.78;4970581;28;20017;-75
2022/05/20 09:48:20;;;;;;;13.85;12.55;;;;;;;24.79;60.77;101112.22;4956290;28;20026;-75
2022/05/20 09:50:57;;;;;;;14.48;13.18;;;;;;;24.75;60.20;101111.00;4971521;28;20176;-76
2022/05/20 09:53:33;;;;;;;10.75;9.65;;;;;;;24.32;60.19;101096.34;4964985;28;20433;-75
2022/05/20 09:56:23;;;;;;;9.07;8.27;;;;;;;24.46;60.16;101091.66;4973392;28;20016;-75
2022/05/20 09:59:20;;;;;;;8.27;7.68;;;;;;;24.86;59.84;101092.16;4955743;28;20908;-75
2022/05/20 10:02:18;;;;;;;8.73;7.90;;;;;;;25.35;60.10;101095.00;4954253;28;20029;-76
2022/05/20 10:04:53;;;;;;;8.27;7.68;;;;;;;25.18;60.27;101083.06;4937688;28;20083;-75
2022/05/20 10:07:30;;;;;;;7.15;6.45;;;;;;;25.19;59.74;101090.16;4972697;28;20207;-75
2022/05/20 10:10:08;;;;;;;5.90;5.43;;;;;;;25.96;59.00;101078.75;4955568;28;20822;-75
2022/05/20 10:12:34;;;;;;;5.50;5.00;;;;;;;26.28;56.75;101073.06;4952313;28;20515;-75
2022/05/20 10:15:13;;;;;;;4.75;4.38;;;;;;;26.74;55.79;101071.47;4966644;28;20020;-75
2022/05/20 10:17:57;;;;;;;5.07;4.32;;;;;;;27.10;53.96;101070.59;5008413;28;20069;-76
2022/05/20 10:20:43;;;;;;;;;;;;;;;26.90;52.01;101056.34;5008457;28;20028;-76
2022/05/20 10:23:11;;;;;;;9.98;4.10;;;;;;;27.83;51.33;101035.63;4995936;28;20414;-77
2022/05/20 10:25:49;;;;;;;3.85;3.65;;;;;;;27.83;53.82;101014.69;4989099;28;20013;-75
2022/05/20 10:34:12;;;;;;;4.38;3.75;;;;;;;28.05;50.07;100979.44;4978904;28;20110;-77
2022/05/20 10:36:53;;;;;;;3.92;3.63;;;;;;;27.75;51.44;100975.13;4991373;28;20025;-76
2022/05/20 10:39:40;;;;;;;3.53;3.22;;;;;;;27.93;52.95;100962.34;4974986;28;21221;-76
2022/05/20 10:42:28;;;;;;;3.72;3.40;;;;;;;28.07;52.65;100954.72;5008544;28;20025;-76
2022/05/20 10:51:04;;;;;;;3.97;3.70;;;;;;;29.10;48.20;100943.25;4987402;28;20549;-75
2022/05/20 10:53:38;;;;;;;4.25;3.17;;;;;;;29.81;46.84;100944.19;4955316;28;20982;-76
2022/05/20 10:56:30;;;;;;;3.63;3.33;;;;;;;29.62;47.57;100933.69;4996633;28;20017;-76
2022/05/20 10:58:58;;;;;;;3.60;2.83;;;;;;;29.99;46.85;100937.53;4990595;28;20574;-75
2022/05/20 11:01:29;;;;;;;6.80;3.63;;;;;;;29.40;50.37;100933.78;5005468;28;20459;-76
2022/05/20 11:04:14;;;;;;;3.47;3.20;;;;;;;28.78;46.91;100933.13;4970953;28;20029;-76
2022/05/20 11:06:58;;;;;;;3.97;3.55;;;;;;;28.71;48.18;100918.88;4973662;28;20098;-76
2022/05/20 11:09:54;;;;;;;3.28;3.13;;;;;;;28.40;48.46;100915.72;5001344;28;20662;-76
2022/05/20 11:12:51;;;;;;;3.30;3.03;;;;;;;28.02;51.96;100906.50;4989713;28;20071;-75
2022/05/20 11:15:32;;;;;;;6.50;3.10;;;;;;;28.51;51.23;100902.25;4979334;28;20020;-77
2022/05/20 11:18:14;;;;;;;4.07;3.45;;;;;;;28.48;50.36;100889.94;5002791;28;20101;-76
2022/05/20 11:20:58;;;;;;;4.43;3.23;;;;;;;28.70;52.59;100895.44;4993528;28;20037;-75
2022/05/20 11:23:27;;;;;;;3.03;2.83;;;;;;;28.90;48.99;100888.56;5028511;27;20093;-76
2022/05/20 11:26:24;;;;;;;3.30;2.90;;;;;;;28.82;48.42;100872.69;5043419;27;20327;-77
2022/05/20 11:29:11;;;;;;;4.90;3.50;;;;;;;28.30;49.12;100880.19;5003616;27;20005;-75
2022/05/20 11:31:45;;;;;;;3.42;3.33;;;;;;;27.73;52.38;100873.13;5027948;27;20576;-75
2022/05/20 11:34:33;;;;;;;3.58;3.38;;;;;;;27.13;54.08;100852.81;5011781;27;20311;-76
2022/05/20 11:37:05;;;;;;;5.70;3.47;;;;;;;26.76;54.12;100847.78;4979882;27;20554;-75
2022/05/20 11:39:45;;;;;;;3.90;3.00;;;;;;;26.98;54.56;100846.03;5031106;27;20109;-75
2022/05/20 11:42:36;;;;;;;4.43;3.28;;;;;;;26.90;55.39;100830.13;4993872;27;20013;-75
2022/05/20 11:45:10;;;;;;;5.28;3.30;;;;;;;26.86;53.82;100809.97;4983665;28;20009;-76
2022/05/20 11:47:54;;;;;;;3.85;3.25;;;;;;;27.38;55.66;100801.63;4994323;28;20005;-76
2022/05/20 11:50:23;;;;;;;;;;;;;;;27.93;53.76;100788.28;5013258;28;20413;-76
2022/05/20 11:53:01;;;;;;;5.93;3.30;;;;;;;28.36;51.54;100777.66;4996425;28;20699;-76
2022/05/20 11:55:36;;;;;;;3.15;3.00;;;;;;;29.33;51.35;100753.28;5011307;28;20005;-76
2022/05/20 11:58:04;;;;;;;3.53;3.33;;;;;;;29.48;48.88;100732.66;4959221;28;20008;-76
2022/05/20 12:00:29;;;;;;;3.55;3.25;;;;;;;28.72;49.54;100708.09;4973138;28;20005;-76